Time;durP1;ratioP1;P1;durP2;ratioP2;P2;SDS_P1;SDS_P2;PMS_P1;PMS_P2;Temp;Humidity;BMP_temperature;BMP_pressure;BME280_temperature;BME280_humidity;BME280_pressure;Samples;Min_cycle;Max_cycle;Signal;HPM_P1;HPM_P2
2023/04/07 00:00:25;;;;;;;11.27;5.88;;;;;;;7.62;71.64;101339.00;5030340;28;20049;-49
2023/04/07 00:02:52;;;;;;;11.63;5.95;;;;;;;7.61;71.84;101342.88;5011920;28;20411;-47
2023/04/07 00:05:19;;;;;;;10.93;6.60;;;;;;;7.61;71.65;101347.56;5024333;28;20508;-49
2023/04/07 00:07:46;;;;;;;15.80;6.30;;;;;;;7.59;71.62;101349.81;5029600;28;20103;-46
2023/04/07 00:10:22;;;;;;;8.73;5.57;;;;;;;7.57;71.42;101350.09;5029626;28;20124;-46
2023/04/07 00:12:49;;;;;;;11.25;7.20;;;;;;;7.49;71.73;101345.38;5028923;28;20500;-47
2023/04/07 00:15:16;;;;;;;11.02;6.90;;;;;;;7.44;71.85;101348.19;5020737;28;20045;-48
2023/04/07 00:17:42;;;;;;;11.98;5.85;;;;;;;7.35;72.03;101344.56;5030192;28;20045;-47
2023/04/07 00:20:10;;;;;;;10.73;6.10;;;;;;;7.30;72.25;101341.94;5029801;28;20057;-47
2023/04/07 00:22:36;;;;;;;9.20;6.68;;;;;;;7.25;72.55;101345.59;5029523;28;20046;-55
2023/04/07 00:25:04;;;;;;;9.52;5.55;;;;;;;7.23;72.62;101344.25;5029625;28;20492;-47
2023/04/07 00:27:30;;;;;;;11.48;5.32;;;;;;;7.23;72.92;101344.25;5017877;28;20542;-47
2023/04/07 00:29:57;;;;;;;9.07;5.40;;;;;;;7.27;72.66;101346.13;5030193;28;20037;-47
2023/04/07 00:32:24;;;;;;;10.25;7.18;;;;;;;7.20;72.87;101350.41;5029343;28;20059;-46
2023/04/07 00:34:51;;;;;;;10.75;6.20;;;;;;;7.15;73.04;101345.00;5027813;28;20105;-46
2023/04/07 00:37:18;;;;;;;8.55;6.15;;;;;;;7.13;73.15;101350.00;5029291;28;20064;-46
2023/04/07 00:39:45;;;;;;;10.50;5.38;;;;;;;7.11;73.21;101346.75;5029326;28;20468;-47
2023/04/07 00:42:12;;;;;;;7.70;5.78;;;;;;;7.06;73.29;101344.09;5028917;28;20041;-53
2023/04/07 00:44:39;;;;;;;9.25;5.97;;;;;;;6.94;73.35;101332.75;5029357;28;20041;-47
2023/04/07 00:47:06;;;;;;;12.50;6.18;;;;;;;6.89;73.83;101339.19;5012484;28;20515;-46
2023/04/07 00:49:32;;;;;;;9.40;5.43;;;;;;;6.88;73.67;101334.00;5029384;28;20156;-47
2023/04/07 00:52:00;;;;;;;8.48;6.45;;;;;;;6.86;73.93;101336.25;5029292;28;20408;-52
2023/04/07 00:54:29;;;;;;;10.35;6.03;;;;;;;6.83;73.92;101334.91;5030031;28;20059;-47
2023/04/07 00:56:57;;;;;;;16.20;6.22;;;;;;;6.84;74.14;101333.81;5028677;28;20171;-46
2023/04/07 00:59:24;;;;;;;9.32;5.53;;;;;;;6.83;74.10;101334.91;5022514;28;20053;-47
2023/04/07 01:02:07;;;;;;;12.25;6.80;;;;;;;6.83;74.25;101336.88;5028652;28;20080;-47
2023/04/07 01:04:53;;;;;;;9.80;6.00;;;;;;;6.80;74.27;101338.31;5034600;28;20041;-49
2023/04/07 01:07:50;;;;;;;9.68;5.03;;;;;;;6.81;74.35;101339.09;5029096;28;20120;-48
2023/04/07 01:10:49;;;;;;;8.95;5.18;;;;;;;6.80;74.04;101337.47;5021330;28;20519;-48
2023/04/07 01:13:27;;;;;;;10.77;6.43;;;;;;;6.72;74.26;101337.06;5028312;28;20084;-48
2023/04/07 01:15:57;;;;;;;9.60;5.50;;;;;;;6.67;74.25;101344.63;5028851;28;20566;-49
2023/04/07 01:18:30;;;;;;;9.23;5.63;;;;;;;6.63;74.56;101338.91;5028816;28;20099;-47
2023/04/07 01:21:04;;;;;;;9.93;5.85;;;;;;;6.63;74.44;101335.31;5028840;28;20053;-53
2023/04/07 01:23:48;;;;;;;11.50;6.68;;;;;;;6.60;74.64;101334.00;5029068;28;20073;-47
2023/04/07 01:26:20;;;;;;;7.18;5.10;;;;;;;6.57;74.47;101336.53;5029440;28;20139;-47
2023/04/07 01:29:02;;;;;;;10.10;5.68;;;;;;;6.54;74.75;101334.41;5026703;28;20045;-48
2023/04/07 01:31:29;;;;;;;12.27;6.25;;;;;;;6.50;75.10;101334.19;5028642;28;20045;-48
2023/04/07 01:33:59;;;;;;;11.60;6.57;;;;;;;6.58;74.87;101329.91;5028412;28;20042;-49
2023/04/07 01:36:30;;;;;;;12.57;8.02;;;;;;;6.57;75.05;101326.34;5029025;28;20141;-46
2023/04/07 01:38:58;;;;;;;9.13;5.90;;;;;;;6.49;74.84;101327.06;5029731;28;20388;-46
2023/04/07 01:41:25;;;;;;;9.05;6.35;;;;;;;6.46;75.12;101335.13;5028695;28;20050;-47
2023/04/07 01:43:54;;;;;;;13.20;6.45;;;;;;;6.40;75.25;101323.38;5041636;28;20055;-46
2023/04/07 01:46:21;;;;;;;9.40;6.57;;;;;;;6.36;75.36;101316.03;5028704;28;20045;-48
2023/04/07 01:48:49;;;;;;;13.00;6.40;;;;;;;6.35;75.21;101325.41;5028589;28;20048;-48
2023/04/07 01:51:17;;;;;;;10.20;6.85;;;;;;;6.33;75.61;101333.94;5028529;28;20081;-49
2023/04/07 01:53:45;;;;;;;10.80;5.95;;;;;;;6.33;75.60;101338.66;5028319;28;20055;-48
2023/04/07 01:56:12;;;;;;;14.90;7.22;;;;;;;6.30;75.38;101340.03;5033062;28;20140;-50
2023/04/07 01:58:38;;;;;;;12.63;7.43;;;;;;;6.26;75.80;101343.72;5021816;28;20045;-47
2023/04/07 02:01:05;;;;;;;12.18;6.13;;;;;;;6.21;75.78;101330.06;5032067;28;20060;-46
2023/04/07 02:04:03;;;;;;;8.88;5.63;;;;;;;6.16;75.99;101333.72;5032991;28;20057;-47
2023/04/07 02:06:34;;;;;;;13.10;6.53;;;;;;;6.12;75.98;101332.69;5032392;28;20139;-50
2023/04/07 02:09:06;;;;;;;9.50;6.32;;;;;;;6.10;75.79;101330.25;5032545;28;20054;-51
2023/04/07 02:11:36;;;;;;;12.23;5.78;;;;;;;6.08;75.73;101321.47;5032873;28;20042;-47
2023/04/07 02:14:05;;;;;;;9.68;5.63;;;;;;;6.08;76.27;101317.91;5026216;28;20132;-49
2023/04/07 02:16:34;;;;;;;9.68;5.70;;;;;;;6.03;76.15;101318.00;5032482;28;20144;-51
2023/04/07 02:19:02;;;;;;;11.18;5.45;;;;;;;6.02;76.45;101321.84;5030354;28;20050;-48
2023/04/07 02:21:30;;;;;;;8.93;5.22;;;;;;;5.99;76.40;101328.78;5032519;28;20074;-52
2023/04/07 02:24:05;;;;;;;8.63;4.80;;;;;;;5.95;76.71;101327.75;5032525;28;20462;-51
2023/04/07 02:26:34;;;;;;;7.70;4.03;;;;;;;5.93;76.90;101329.19;5029669;28;20045;-47
2023/04/07 02:29:03;;;;;;;18.20;4.90;;;;;;;5.93;76.72;101323.69;5029090;28;20543;-52
2023/04/07 02:31:30;;;;;;;6.47;4.32;;;;;;;5.94;76.63;101323.38;5031777;28;20045;-50
2023/04/07 02:33:57;;;;;;;7.35;4.25;;;;;;;5.88;76.48;101331.97;5031403;28;20041;-48
2023/04/07 02:36:23;;;;;;;8.15;4.95;;;;;;;5.84;76.69;101328.19;5031968;28;20083;-47
2023/04/07 02:38:50;;;;;;;9.43;5.05;;;;;;;5.82;76.72;101322.16;5031660;28;20045;-47
2023/04/07 02:41:17;;;;;;;8.43;4.57;;;;;;;5.81;76.79;101315.84;5031680;28;20036;-47
2023/04/07 02:43:43;;;;;;;9.60;5.22;;;;;;;5.82;77.00;101328.50;5031232;28;20521;-47
2023/04/07 02:46:10;;;;;;;9.98;4.45;;;;;;;5.76;76.85;101332.44;5032178;28;20046;-47
2023/04/07 02:48:37;;;;;;;6.88;4.80;;;;;;;5.70;76.82;101324.53;5031471;28;20038;-50
2023/04/07 02:51:04;;;;;;;8.18;4.18;;;;;;;5.69;77.12;101322.94;5014124;28;20514;-47
2023/04/07 02:53:30;;;;;;;10.30;4.70;;;;;;;5.69;77.40;101321.00;5031363;28;20079;-47
2023/04/07 02:55:57;;;;;;;9.40;4.65;;;;;;;5.67;77.03;101330.63;5031925;28;20049;-47
2023/04/07 02:58:24;;;;;;;6.90;5.00;;;;;;;5.66;77.19;101323.53;5029496;28;20056;-46
2023/04/07 03:00:51;;;;;;;6.70;3.83;;;;;;;5.65;77.41;101317.22;5064373;23;21256;-49
2023/04/07 03:03:18;;;;;;;5.80;4.05;;;;;;;5.63;77.63;101319.44;5030261;28;20529;-48
2023/04/07 03:05:45;;;;;;;6.93;3.83;;;;;;;5.64;77.68;101321.06;5029937;28;20041;-47
2023/04/07 03:08:11;;;;;;;8.90;4.43;;;;;;;5.63;77.45;101319.44;5029803;28;20038;-46
2023/04/07 03:10:38;;;;;;;8.82;4.10;;;;;;;5.61;77.61;101321.69;5029910;28;20053;-55
2023/04/07 03:13:07;;;;;;;5.80;4.15;;;;;;;5.65;77.84;101319.13;5028654;28;20507;-47
2023/04/07 03:15:33;;;;;;;8.88;4.28;;;;;;;5.66;77.69;101323.53;5029702;28;20042;-48
2023/04/07 03:18:00;;;;;;;10.38;4.22;;;;;;;5.62;77.55;101314.22;5011751;28;20056;-48
2023/04/07 03:20:27;;;;;;;9.77;5.55;;;;;;;5.59;77.58;101320.34;5012345;28;20046;-51
2023/04/07 03:22:54;;;;;;;5.50;3.85;;;;;;;5.55;77.75;101317.38;5029623;28;20037;-47
2023/04/07 03:25:21;;;;;;;6.63;3.88;;;;;;;5.54;77.90;101316.53;5013511;28;20053;-48
2023/04/07 03:27:47;;;;;;;5.43;3.20;;;;;;;5.53;77.85;101323.16;5025433;28;20049;-48
2023/04/07 03:30:15;;;;;;;4.90;3.25;;;;;;;5.52;78.22;101323.44;5012363;28;20085;-46
2023/04/07 03:32:41;;;;;;;7.30;3.70;;;;;;;5.49;77.74;101318.56;5031426;28;20140;-47
2023/04/07 03:35:09;;;;;;;6.30;3.25;;;;;;;5.46;78.13;101314.47;5031037;28;20049;-47
2023/04/07 03:37:35;;;;;;;5.85;3.08;;;;;;;5.47;78.06;101321.59;5031434;28;20077;-48
2023/04/07 03:40:02;;;;;;;7.07;3.05;;;;;;;5.45;78.40;101315.56;5031204;28;20052;-50
2023/04/07 03:42:29;;;;;;;5.70;3.00;;;;;;;5.45;78.14;101326.56;5012944;28;20049;-47
2023/04/07 03:44:56;;;;;;;6.03;3.10;;;;;;;5.45;78.37;101318.31;5030773;28;20140;-46
2023/04/07 03:47:23;;;;;;;6.90;3.17;;;;;;;5.45;78.34;101323.03;5030927;28;20092;-46
2023/04/07 03:49:49;;;;;;;7.22;3.05;;;;;;;5.45;78.16;101326.56;5030783;28;20076;-48
2023/04/07 03:52:16;;;;;;;5.07;3.05;;;;;;;5.45;78.48;101318.31;5031074;28;20080;-46
2023/04/07 03:54:44;;;;;;;6.00;3.67;;;;;;;5.44;78.30;101322.19;5030780;28;20461;-47
2023/04/07 03:57:11;;;;;;;5.38;3.40;;;;;;;5.46;78.55;101317.22;5024400;28;20552;-47
2023/04/07 03:59:38;;;;;;;6.45;2.85;;;;;;;5.46;78.54;101314.47;5030692;28;20057;-47
2023/04/07 04:02:05;;;;;;;5.93;2.63;;;;;;;5.44;78.37;101316.72;5030698;28;20413;-46
2023/04/07 04:04:31;;;;;;;5.90;2.80;;;;;;;5.43;78.42;101315.06;5030264;28;20073;-47
2023/04/07 04:06:58;;;;;;;10.05;3.03;;;;;;;5.41;78.83;101311.81;5030707;28;20317;-52
2023/04/07 04:09:25;;;;;;;7.68;3.15;;;;;;;5.40;78.69;101315.66;5030082;28;20550;-50
2023/04/07 04:11:51;;;;;;;6.07;3.20;;;;;;;5.39;78.81;101313.22;5029699;28;20407;-48
2023/04/07 04:14:18;;;;;;;5.88;3.03;;;;;;;5.38;78.79;101312.41;5030180;28;20046;-46
2023/04/07 04:16:45;;;;;;;6.13;3.60;;;;;;;5.40;79.00;101315.66;5029912;28;20042;-46
2023/04/07 04:19:12;;;;;;;9.48;3.80;;;;;;;5.38;79.08;101312.41;5030299;28;20103;-48
2023/04/07 04:21:38;;;;;;;6.57;3.47;;;;;;;5.35;78.89;101318.47;5021876;28;20060;-48
2023/04/07 04:24:05;;;;;;;7.20;3.47;;;;;;;5.31;79.03;101314.69;5029418;28;20388;-47
2023/04/07 04:26:32;;;;;;;5.28;2.35;;;;;;;5.30;79.19;101307.56;5029041;28;20124;-47
2023/04/07 04:28:59;;;;;;;7.30;3.03;;;;;;;5.30;79.31;101314.97;5030530;28;20049;-46
2023/04/07 04:31:25;;;;;;;9.02;2.83;;;;;;;5.29;79.26;101313.38;5030107;28;20050;-46
2023/04/07 04:33:52;;;;;;;7.07;5.63;;;;;;;5.30;79.65;101314.97;5029824;28;20055;-48
2023/04/07 04:36:19;;;;;;;9.15;3.78;;;;;;;5.31;79.47;101306.47;5029752;28;20136;-49
2023/04/07 04:38:46;;;;;;;5.07;2.72;;;;;;;5.33;79.47;101311.66;5029352;28;20124;-47
2023/04/07 04:41:14;;;;;;;7.07;3.00;;;;;;;5.35;79.55;101312.16;5029631;28;20099;-49
2023/04/07 04:43:41;;;;;;;9.52;4.45;;;;;;;5.32;79.41;101318.28;5029220;28;20415;-48
2023/04/07 04:46:08;;;;;;;5.05;2.88;;;;;;;5.32;79.46;101310.81;5030455;28;20052;-46
2023/04/07 04:48:34;;;;;;;6.53;2.70;;;;;;;5.33;79.71;101312.47;5029746;28;20173;-46
2023/04/07 04:51:01;;;;;;;7.82;2.88;;;;;;;5.34;79.99;101316.03;5029533;28;20059;-46
2023/04/07 04:53:28;;;;;;;6.03;3.17;;;;;;;5.33;79.82;101320.72;5029214;28;20434;-46
2023/04/07 04:55:55;;;;;;;7.80;3.00;;;;;;;5.33;79.92;101312.47;5022081;28;20057;-48
2023/04/07 04:58:22;;;;;;;5.38;3.13;;;;;;;5.33;79.87;101315.22;5026729;28;20049;-46
2023/04/07 05:00:48;;;;;;;10.73;4.45;;;;;;;5.33;80.13;101315.22;5012863;28;20525;-49
2023/04/07 05:03:15;;;;;;;9.43;3.53;;;;;;;5.33;79.87;101314.41;5030529;28;20482;-48
2023/04/07 05:05:47;;;;;;;4.05;2.70;;;;;;;5.27;80.28;101313.66;5029237;28;20136;-47
2023/04/07 05:08:13;;;;;;;4.80;2.50;;;;;;;5.23;79.99;101307.13;5028701;28;20548;-47
2023/04/07 05:10:40;;;;;;;7.15;4.28;;;;;;;5.21;80.31;101314.84;5029239;28;20041;-47
2023/04/07 05:13:07;;;;;;;7.72;2.88;;;;;;;5.18;80.66;101318.19;5028532;28;20400;-47
2023/04/07 05:15:34;;;;;;;10.15;3.78;;;;;;;5.16;80.77;101320.41;5029268;28;20049;-48
2023/04/07 05:18:00;;;;;;;4.93;2.60;;;;;;;5.20;80.71;101321.44;5029035;28;20399;-52
2023/04/07 05:20:27;;;;;;;6.93;2.97;;;;;;;5.17;80.73;101322.03;5025932;28;20103;-46
2023/04/07 05:22:54;;;;;;;7.22;3.28;;;;;;;5.13;80.74;101325.66;5029288;28;20037;-48
2023/04/07 05:25:20;;;;;;;5.53;3.15;;;;;;;5.10;80.73;101318.84;5028944;28;20049;-48
2023/04/07 05:27:47;;;;;;;6.22;3.30;;;;;;;5.06;80.84;101323.28;5028588;28;20049;-47
2023/04/07 05:30:14;;;;;;;6.20;3.10;;;;;;;5.05;80.89;101316.16;5028727;28;20081;-46
2023/04/07 05:32:41;;;;;;;5.28;2.70;;;;;;;5.04;81.12;101322.75;5028993;28;20049;-46
2023/04/07 05:35:08;;;;;;;5.20;2.55;;;;;;;5.05;81.45;101323.56;5029293;28;20091;-47
2023/04/07 05:37:35;;;;;;;5.70;3.08;;;;;;;5.08;81.33;101333.97;5011350;28;20045;-46
2023/04/07 05:40:02;;;;;;;10.82;3.40;;;;;;;5.10;81.30;101332.56;5028643;28;20606;-46
2023/04/07 05:42:28;;;;;;;12.07;3.28;;;;;;;5.11;80.95;101334.19;5029250;28;20092;-53
2023/04/07 05:44:55;;;;;;;10.93;3.30;;;;;;;5.10;81.11;101331.75;5028673;28;20479;-50
2023/04/07 05:47:22;;;;;;;6.38;3.22;;;;;;;5.09;81.47;101336.41;5028817;28;20496;-47
2023/04/07 05:49:49;;;;;;;8.55;4.55;;;;;;;5.12;81.08;101335.81;5028822;28;20559;-47
2023/04/07 05:52:15;;;;;;;7.22;2.78;;;;;;;5.09;81.12;101332.84;5027996;28;20053;-46
2023/04/07 05:54:42;;;;;;;7.68;3.13;;;;;;;5.11;81.15;101341.63;5028684;28;20050;-49
2023/04/07 05:57:09;;;;;;;5.68;3.40;;;;;;;5.11;81.72;101338.88;5028746;28;20052;-50
2023/04/07 05:59:36;;;;;;;7.53;3.00;;;;;;;5.12;81.40;101341.31;5028514;28;20068;-47
2023/04/07 06:02:03;;;;;;;4.05;2.95;;;;;;;5.13;81.72;101337.47;5028305;28;20076;-47
2023/04/07 06:04:31;;;;;;;6.63;2.85;;;;;;;5.16;81.46;101336.88;5028278;28;20438;-50
2023/04/07 06:06:58;;;;;;;5.22;2.40;;;;;;;5.19;81.55;101335.47;5028390;28;20123;-47
2023/04/07 06:09:25;;;;;;;8.63;3.08;;;;;;;5.24;82.06;101344.44;5028371;28;21093;-51
2023/04/07 06:11:52;;;;;;;7.85;3.08;;;;;;;5.28;81.76;101334.50;5010780;28;20435;-47
2023/04/07 06:14:19;;;;;;;5.70;2.58;;;;;;;5.36;82.12;101341.25;5024079;28;20064;-46
2023/04/07 06:16:46;;;;;;;8.75;3.20;;;;;;;5.41;82.04;101341.19;5028267;28;20045;-47
2023/04/07 06:19:13;;;;;;;8.00;2.95;;;;;;;5.46;81.96;101344.69;5027836;28;20037;-46
2023/04/07 06:21:39;;;;;;;7.15;2.70;;;;;;;5.50;81.97;101348.47;5028416;28;20055;-48
2023/04/07 06:24:06;;;;;;;5.78;2.83;;;;;;;5.57;82.24;101341.78;5008915;28;20079;-46
2023/04/07 06:26:33;;;;;;;5.90;2.55;;;;;;;5.60;82.14;101347.50;5028853;28;20041;-47
2023/04/07 06:29:01;;;;;;;3.70;2.15;;;;;;;5.65;82.38;101343.84;5024276;28;20056;-48
2023/04/07 06:31:28;;;;;;;11.93;2.28;;;;;;;5.69;82.18;101350.41;5028090;28;20068;-51
2023/04/07 06:33:54;;;;;;;8.15;2.80;;;;;;;5.77;82.27;101356.00;5010173;28;20083;-46
2023/04/07 06:36:22;;;;;;;9.27;2.80;;;;;;;5.85;82.80;101347.13;5028301;28;20136;-47
2023/04/07 06:38:49;;;;;;;5.68;2.45;;;;;;;5.90;82.44;101346.25;5028099;28;20073;-47
2023/04/07 06:41:16;;;;;;;4.63;2.17;;;;;;;5.97;82.54;101346.69;5012497;28;20057;-48
2023/04/07 06:43:45;;;;;;;10.90;3.72;;;;;;;6.03;82.57;101345.50;5032284;28;20132;-49
2023/04/07 06:46:13;;;;;;;4.47;2.35;;;;;;;6.11;82.63;101350.31;5031649;28;20486;-46
2023/04/07 06:48:40;;;;;;;7.95;2.35;;;;;;;6.17;82.62;101353.78;5031435;28;20053;-50
2023/04/07 06:51:07;;;;;;;12.82;2.58;;;;;;;6.21;82.86;101347.38;5031632;28;20049;-52
2023/04/07 06:53:34;;;;;;;4.63;2.60;;;;;;;6.25;82.85;101353.88;5030680;28;20491;-47
2023/04/07 06:56:09;;;;;;;8.88;2.42;;;;;;;6.31;82.95;101346.38;5032108;28;20049;-48
2023/04/07 06:58:37;;;;;;;9.55;2.55;;;;;;;6.35;83.11;101353.72;5031707;28;20486;-50
2023/04/07 07:01:05;;;;;;;8.50;3.63;;;;;;;6.39;83.08;101354.75;5032335;28;20145;-46
2023/04/07 07:03:32;;;;;;;6.68;2.60;;;;;;;6.43;83.44;101355.78;5031697;28;20044;-53
2023/04/07 07:06:00;;;;;;;5.15;2.45;;;;;;;6.46;83.42;101348.88;5031501;28;20051;-52
2023/04/07 07:08:28;;;;;;;10.00;2.95;;;;;;;6.48;83.68;101350.19;5018861;28;20077;-47
2023/04/07 07:10:55;;;;;;;8.32;2.55;;;;;;;6.51;83.58;101352.31;5031983;28;20050;-47
2023/04/07 07:13:24;;;;;;;8.98;2.97;;;;;;;6.56;83.76;101357.75;5019168;28;20060;-48
2023/04/07 07:15:51;;;;;;;7.68;2.65;;;;;;;6.62;83.99;101366.69;5030984;28;20049;-47
2023/04/07 07:18:18;;;;;;;7.57;2.80;;;;;;;6.64;83.90;101359.78;5031599;28;20045;-46
2023/04/07 07:20:45;;;;;;;7.43;2.45;;;;;;;6.68;84.00;101366.31;5031339;28;20128;-48
2023/04/07 07:23:11;;;;;;;7.40;2.28;;;;;;;6.69;84.18;101359.69;5029249;28;20483;-48
2023/04/07 07:25:38;;;;;;;4.38;2.42;;;;;;;6.74;84.30;101362.34;5021208;28;20149;-46
2023/04/07 07:28:05;;;;;;;6.03;2.65;;;;;;;6.79;84.34;101374.38;4983866;28;20057;-49
2023/04/07 07:30:32;;;;;;;6.38;2.38;;;;;;;6.84;84.53;101375.09;5030611;28;20495;-47
2023/04/07 07:33:00;;;;;;;8.77;2.85;;;;;;;6.90;84.54;101367.53;5030697;28;20526;-49
2023/04/07 07:35:27;;;;;;;10.55;4.28;;;;;;;6.95;84.71;101367.44;5031093;28;20038;-46
2023/04/07 07:37:53;;;;;;;6.40;2.75;;;;;;;7.00;84.82;101359.09;5030652;28;20045;-46
2023/04/07 07:40:20;;;;;;;8.35;3.75;;;;;;;7.06;84.93;101364.19;5029376;28;20049;-47
2023/04/07 07:42:47;;;;;;;10.02;4.32;;;;;;;7.13;85.06;101369.28;5020833;28;20045;-49
2023/04/07 07:45:16;;;;;;;10.68;4.25;;;;;;;7.21;85.08;101361.09;5030176;28;20076;-48
2023/04/07 07:47:43;;;;;;;11.00;4.78;;;;;;;7.31;85.33;101371.09;5031078;28;20069;-47
2023/04/07 07:50:10;;;;;;;9.50;5.10;;;;;;;7.43;85.34;101367.81;5029857;28;20041;-52
2023/04/07 07:52:36;;;;;;;11.00;4.50;;;;;;;7.53;85.35;101373.91;5030362;28;20457;-46
2023/04/07 07:55:03;;;;;;;10.18;5.78;;;;;;;7.65;85.35;101367.88;5029743;28;20052;-47
2023/04/07 07:57:30;;;;;;;17.27;6.43;;;;;;;7.77;85.45;101365.38;5030206;28;20827;-52
2023/04/07 07:59:57;;;;;;;8.88;5.60;;;;;;;7.87;85.64;101360.44;5029999;28;20044;-50
2023/04/07 08:02:29;;;;;;;7.78;4.85;;;;;;;7.99;85.65;101366.19;5029973;28;20515;-49
2023/04/07 08:04:56;;;;;;;;;;;;;;;8.11;85.39;101378.63;5030733;28;20091;-46
2023/04/07 08:07:23;;;;;;;11.68;4.93;;;;;;;8.22;85.29;101363.44;5029928;28;20331;-47
2023/04/07 08:09:50;;;;;;;12.68;4.40;;;;;;;8.35;85.54;101368.09;5028028;28;20416;-46
2023/04/07 08:12:17;;;;;;;6.28;3.85;;;;;;;8.50;85.73;101374.03;5023042;28;20500;-49
2023/04/07 08:14:43;;;;;;;21.42;4.50;;;;;;;8.64;85.98;101360.16;5029777;28;20430;-47
2023/04/07 08:17:11;;;;;;;12.80;3.88;;;;;;;8.74;86.32;101364.56;5017971;28;20053;-47
2023/04/07 08:19:38;;;;;;;7.88;3.72;;;;;;;8.84;86.74;101354.06;5026598;28;20099;-46
2023/04/07 08:22:05;;;;;;;6.22;2.63;;;;;;;8.95;86.83;101363.69;5028605;28;20053;-52
2023/04/07 08:24:31;;;;;;;15.10;4.93;;;;;;;9.06;87.31;101362.28;5029821;28;20515;-47
2023/04/07 08:26:58;;;;;;;9.30;3.03;;;;;;;9.17;87.62;101358.09;5030155;28;20478;-50
2023/04/07 08:29:26;;;;;;;6.63;3.30;;;;;;;9.29;88.22;101363.00;5029654;28;20219;-47
2023/04/07 08:31:54;;;;;;;6.03;2.75;;;;;;;9.45;89.09;101374.44;5029825;28;20139;-48
2023/04/07 08:34:21;;;;;;;4.60;2.33;;;;;;;9.59;90.04;101364.03;5029505;28;20049;-47
2023/04/07 08:36:47;;;;;;;4.93;2.97;;;;;;;9.76;91.02;101369.56;5029508;28;20410;-47
2023/04/07 08:39:14;;;;;;;8.63;2.97;;;;;;;9.93;91.81;101369.56;5029490;28;20116;-48
2023/04/07 08:41:43;;;;;;;6.43;3.03;;;;;;;10.12;92.67;101367.31;5029338;28;20081;-49
2023/04/07 08:44:10;;;;;;;6.25;3.13;;;;;;;10.33;94.45;101368.25;5029738;28;20052;-51
2023/04/07 08:46:38;;;;;;;9.52;2.53;;;;;;;10.62;96.04;101369.50;5029310;28;20069;-48
2023/04/07 08:49:12;;;;;;;7.90;2.90;;;;;;;10.88;97.05;101375.78;5010517;28;20076;-51
2023/04/07 08:51:47;;;;;;;9.02;2.65;;;;;;;11.13;97.89;101366.53;5028942;28;20038;-52
2023/04/07 08:54:17;;;;;;;11.05;3.92;;;;;;;11.49;98.54;101366.78;5029171;28;20476;-49
2023/04/07 08:56:44;;;;;;;4.97;2.50;;;;;;;11.98;98.19;101372.66;5029462;28;20128;-51
2023/04/07 08:59:14;;;;;;;9.80;2.63;;;;;;;12.76;96.90;101368.75;5029100;28;20073;-50
2023/04/07 09:01:41;;;;;;;4.20;2.42;;;;;;;13.66;93.76;101373.31;5029041;28;20487;-50
2023/04/07 09:04:09;;;;;;;6.72;2.35;;;;;;;14.41;89.84;101385.50;5020700;28;20045;-49
2023/04/07 09:06:37;;;;;;;3.30;2.15;;;;;;;15.02;86.30;101372.00;5029163;28;20056;-48
2023/04/07 09:09:07;;;;;;;8.68;2.47;;;;;;;15.63;84.03;101383.50;5029273;28;20041;-48
2023/04/07 09:11:38;;;;;;;5.13;1.60;;;;;;;16.20;81.23;101377.97;5029267;28;20103;-48
2023/04/07 09:14:06;;;;;;;4.10;1.60;;;;;;;16.69;79.21;101377.34;5028624;28;20060;-49
2023/04/07 09:16:36;;;;;;;4.43;1.80;;;;;;;16.96;76.36;101376.25;5029244;28;20111;-48
2023/04/07 09:19:03;;;;;;;7.63;2.20;;;;;;;17.25;73.97;101383.13;5028928;28;20096;-48
2023/04/07 09:21:50;;;;;;;4.72;1.35;;;;;;;17.49;73.97;101386.34;5028921;28;20148;-48
2023/04/07 09:24:24;;;;;;;3.85;2.03;;;;;;;17.59;70.94;101385.72;5028755;28;20045;-50
2023/04/07 09:27:12;;;;;;;4.85;1.83;;;;;;;17.70;70.11;101379.47;5015997;28;20092;-50
2023/04/07 09:29:43;;;;;;;4.78;2.00;;;;;;;17.89;66.59;101384.94;5019179;28;20778;-49
2023/04/07 09:32:12;;;;;;;5.32;2.17;;;;;;;18.05;65.04;101391.97;5025693;28;20041;-51
2023/04/07 09:34:40;;;;;;;6.25;1.92;;;;;;;18.01;63.36;101393.09;5037630;28;20049;-48
2023/04/07 09:37:08;;;;;;;6.72;2.20;;;;;;;18.01;62.31;101387.50;5032545;28;20084;-51
2023/04/07 09:39:52;;;;;;;6.43;2.20;;;;;;;17.97;62.94;101384.66;5038416;28;20037;-48
2023/04/07 09:42:20;;;;;;;6.00;1.75;;;;;;;17.92;61.24;101389.78;5011586;28;20443;-55
2023/04/07 09:44:47;;;;;;;2.70;1.60;;;;;;;17.72;60.16;101379.88;5028818;28;20060;-52
2023/04/07 09:47:14;;;;;;;6.82;2.20;;;;;;;17.52;60.05;101388.38;5023829;28;20049;-48
2023/04/07 09:49:53;;;;;;;5.90;2.72;;;;;;;17.22;60.17;101387.50;5028512;28;20058;-48
2023/04/07 09:52:46;;;;;;;7.13;1.73;;;;;;;16.70;60.34;101384.56;5029100;28;20053;-49
2023/04/07 09:55:14;;;;;;;5.43;1.70;;;;;;;15.98;60.32;101381.50;5028774;28;20041;-47
2023/04/07 09:57:43;;;;;;;4.57;2.03;;;;;;;16.12;60.59;101381.81;5028226;28;20069;-51
2023/04/07 10:00:10;;;;;;;4.30;2.38;;;;;;;16.47;59.83;101389.28;5011321;28;20041;-53
2023/04/07 10:02:37;;;;;;;7.85;3.08;;;;;;;16.68;59.00;101381.34;5028416;28;20069;-48
2023/04/07 10:05:05;;;;;;;3.35;1.65;;;;;;;16.77;58.41;101382.72;5028006;28;20041;-48
2023/04/07 10:07:31;;;;;;;9.80;2.30;;;;;;;16.99;57.72;101381.09;5028641;28;20053;-49
2023/04/07 10:09:58;;;;;;;4.75;1.80;;;;;;;17.25;57.13;101389.53;5028268;28;20142;-51
2023/04/07 10:12:26;;;;;;;5.38;1.38;;;;;;;17.39;56.35;101384.19;5028122;28;20053;-49
2023/04/07 10:14:54;;;;;;;8.18;1.80;;;;;;;17.64;55.90;101379.78;5027870;28;20074;-49
2023/04/07 10:17:21;;;;;;;4.25;1.52;;;;;;;17.69;55.19;101386.25;5032364;28;20069;-50
2023/04/07 10:19:49;;;;;;;4.20;1.70;;;;;;;17.54;55.23;101380.44;5010118;28;20072;-49
2023/04/07 10:22:17;;;;;;;6.05;2.47;;;;;;;17.50;55.29;101379.53;5032053;28;20219;-51
2023/04/07 10:24:59;;;;;;;4.40;1.35;;;;;;;17.35;55.57;101371.28;5032313;28;20491;-48
2023/04/07 10:27:37;;;;;;;4.32;1.90;;;;;;;17.36;55.18;101384.94;5030907;28;20042;-52
2023/04/07 10:30:12;;;;;;;4.57;1.50;;;;;;;17.60;54.55;101373.34;5032118;28;20140;-49
2023/04/07 10:32:50;;;;;;;4.57;1.73;;;;;;;17.72;54.31;101380.69;5032241;28;20049;-49
2023/04/07 10:35:17;;;;;;;4.60;1.38;;;;;;;17.74;54.29;101381.13;5032183;28;20045;-49
2023/04/07 10:38:15;;;;;;;4.65;2.05;;;;;;;17.85;54.05;101378.47;5031997;28;20049;-51
2023/04/07 10:40:42;;;;;;;8.35;1.80;;;;;;;17.87;54.09;101381.72;5014368;28;20045;-52
2023/04/07 10:43:13;;;;;;;2.78;1.40;;;;;;;17.98;54.09;101386.25;5026512;28;20053;-49
2023/04/07 10:45:53;;;;;;;3.72;1.50;;;;;;;17.75;54.03;101385.53;5031935;28;21002;-49
2023/04/07 10:48:20;;;;;;;7.32;1.90;;;;;;;17.50;54.18;101378.75;5032007;28;20740;-53
2023/04/07 10:51:13;;;;;;;8.85;1.58;;;;;;;17.13;54.79;101375.72;5032105;28;20095;-50
2023/04/07 10:54:24;;;;;;;4.15;1.30;;;;;;;16.71;55.57;101375.81;5031427;28;20414;-52
2023/04/07 10:57:02;;;;;;;6.22;1.33;;;;;;;16.36;56.47;101373.09;4937328;29;20047;-48
2023/04/07 10:59:29;;;;;;;6.55;1.15;;;;;;;15.98;57.38;101364.75;4952338;28;20083;-48
2023/04/07 11:02:16;;;;;;;4.25;1.30;;;;;;;15.44;58.78;101363.88;4986830;28;20053;-47
2023/04/07 11:04:45;;;;;;;4.50;1.42;;;;;;;15.11;59.79;101370.69;5031476;28;20060;-50
2023/04/07 11:07:14;;;;;;;3.70;1.08;;;;;;;14.70;60.79;101354.47;5030951;28;20075;-51
2023/04/07 11:09:41;;;;;;;8.77;2.13;;;;;;;14.50;61.63;101355.53;5030821;28;20053;-47
2023/04/07 11:12:21;;;;;;;5.28;1.20;;;;;;;14.32;62.27;101368.16;5031058;28;20103;-48
2023/04/07 11:14:48;;;;;;;4.47;1.60;;;;;;;14.17;62.95;101363.28;5030816;28;20084;-50
2023/04/07 11:17:16;;;;;;;4.30;1.63;;;;;;;14.10;63.58;101363.09;5031967;28;20053;-49
2023/04/07 11:19:53;;;;;;;4.43;1.55;;;;;;;14.04;64.11;101359.75;5030875;28;20152;-50
2023/04/07 11:22:19;;;;;;;3.60;1.15;;;;;;;14.02;64.58;101357.34;5012733;28;20060;-50
2023/04/07 11:24:49;;;;;;;2.33;1.00;;;;;;;13.88;64.98;101359.69;5024962;28;20079;-52
2023/04/07 11:27:16;;;;;;;3.17;1.38;;;;;;;13.61;65.08;101357.66;5028974;28;20056;-47
2023/04/07 11:29:43;;;;;;;8.32;1.40;;;;;;;13.43;65.95;101351.56;5011672;28;20514;-49
2023/04/07 11:32:10;;;;;;;3.28;1.25;;;;;;;13.30;66.36;101357.47;5030918;28;20077;-49
2023/04/07 11:34:36;;;;;;;11.07;1.92;;;;;;;13.18;66.78;101349.16;5013379;28;20132;-47
2023/04/07 11:37:20;;;;;;;7.22;1.63;;;;;;;13.11;67.29;101349.72;5030328;28;20096;-49